Terminal Aerodrome Forecast
Issued by NWS Missoula, MT

Home | Current Version | Previous Version | Text Only | Print | Product List | Glossary On
Versions: 1 2 3 4 5 6 7 8 9 10 11 12 13 14 15 16
000
FTUS45 KMSO 050520
TAFGPI
TAF
KGPI 050520Z 0506/0606 03014G20KT P6SM VCSH OVC070
     FM051200 02012KT 6SM -RA BR OVC025
     FM051800 02012KT 4SM -RA BR OVC025
     FM060100 32007KT 6SM -RA BR SCT025 OVC050=

USA.gov is the U.S. government's official web portal to all federal, state and local government web resources and services.